sensor_id;sensor_type;location;lat;lon;timestamp;pressure;altitude;pressure_sealevel;temperature;humidity
41898;BME280;27576;53.366;-1.498;2023-01-26T00:01:36;101700.59;;;2.95;100.00
41898;BME280;27576;53.366;-1.498;2023-01-26T00:04:02;101687.88;;;2.97;100.00
41898;BME280;27576;53.366;-1.498;2023-01-26T00:06:27;101723.63;;;3.09;100.00
41898;BME280;27576;53.366;-1.498;2023-01-26T00:08:54;101718.50;;;3.09;100.00
41898;BME280;27576;53.366;-1.498;2023-01-26T00:11:23;101713.91;;;3.03;100.00
41898;BME280;27576;53.366;-1.498;2023-01-26T00:13:51;101706.81;;;2.99;100.00
41898;BME280;27576;53.366;-1.498;2023-01-26T00:16:17;101687.69;;;2.94;100.00
41898;BME280;27576;53.366;-1.498;2023-01-26T00:18:43;101695.28;;;2.92;100.00
41898;BME280;27576;53.366;-1.498;2023-01-26T00:21:13;101688.41;;;2.91;100.00
41898;BME280;27576;53.366;-1.498;2023-01-26T00:23:39;101676.19;;;2.87;100.00
41898;BME280;27576;53.366;-1.498;2023-01-26T00:26:06;101692.34;;;3.00;100.00
41898;BME280;27576;53.366;-1.498;2023-01-26T00:28:31;101680.31;;;2.85;100.00
41898;BME280;27576;53.366;-1.498;2023-01-26T00:31:05;101728.56;;;3.06;100.00
41898;BME280;27576;53.366;-1.498;2023-01-26T00:33:30;101708.88;;;2.91;100.00
41898;BME280;27576;53.366;-1.498;2023-01-26T00:35:56;101709.56;;;2.89;100.00
41898;BME280;27576;53.366;-1.498;2023-01-26T00:38:22;101733.50;;;3.03;100.00
41898;BME280;27576;53.366;-1.498;2023-01-26T00:40:47;101731.91;;;3.05;100.00
41898;BME280;27576;53.366;-1.498;2023-01-26T00:43:12;101696.34;;;2.83;100.00
41898;BME280;27576;53.366;-1.498;2023-01-26T00:45:38;101704.22;;;2.86;100.00
41898;BME280;27576;53.366;-1.498;2023-01-26T00:48:04;101695.38;;;2.81;100.00
41898;BME280;27576;53.366;-1.498;2023-01-26T00:50:29;101711.25;;;2.88;100.00
41898;BME280;27576;53.366;-1.498;2023-01-26T00:52:54;101721.75;;;2.93;100.00
41898;BME280;27576;53.366;-1.498;2023-01-26T00:55:20;101726.00;;;2.92;100.00
41898;BME280;27576;53.366;-1.498;2023-01-26T00:57:45;101707.28;;;2.80;100.00
41898;BME280;27576;53.366;-1.498;2023-01-26T01:00:11;101729.84;;;2.86;100.00
41898;BME280;27576;53.366;-1.498;2023-01-26T01:02:44;101694.00;;;2.73;100.00
41898;BME280;27576;53.366;-1.498;2023-01-26T01:05:09;101689.06;;;2.62;100.00
41898;BME280;27576;53.366;-1.498;2023-01-26T01:07:35;101722.88;;;2.83;100.00
41898;BME280;27576;53.366;-1.498;2023-01-26T01:10:00;101703.16;;;2.69;100.00
41898;BME280;27576;53.366;-1.498;2023-01-26T01:12:26;101726.88;;;2.80;100.00
41898;BME280;27576;53.366;-1.498;2023-01-26T01:14:52;101722.25;;;2.74;100.00
41898;BME280;27576;53.366;-1.498;2023-01-26T01:17:17;101730.13;;;2.77;100.00
41898;BME280;27576;53.366;-1.498;2023-01-26T01:19:42;101721.06;;;2.69;100.00
41898;BME280;27576;53.366;-1.498;2023-01-26T01:22:08;101700.47;;;2.54;100.00
41898;BME280;27576;53.366;-1.498;2023-01-26T01:24:33;101715.16;;;2.57;100.00
41898;BME280;27576;53.366;-1.498;2023-01-26T01:27:00;101748.41;;;2.70;100.00
41898;BME280;27576;53.366;-1.498;2023-01-26T01:29:25;101709.59;;;2.51;100.00
41898;BME280;27576;53.366;-1.498;2023-01-26T01:31:51;101719.25;;;2.55;100.00
41898;BME280;27576;53.366;-1.498;2023-01-26T01:34:16;101742.91;;;2.64;100.00
41898;BME280;27576;53.366;-1.498;2023-01-26T01:36:42;101737.81;;;2.64;100.00
41898;BME280;27576;53.366;-1.498;2023-01-26T01:39:07;101704.09;;;2.44;100.00
41898;BME280;27576;53.366;-1.498;2023-01-26T01:41:32;101734.16;;;2.60;100.00
41898;BME280;27576;53.366;-1.498;2023-01-26T01:44:21;101742.91;;;2.64;100.00
41898;BME280;27576;53.366;-1.498;2023-01-26T01:49:45;101723.63;;;2.56;100.00
41898;BME280;27576;53.366;-1.498;2023-01-26T01:52:15;101742.41;;;2.69;100.00
41898;BME280;27576;53.366;-1.498;2023-01-26T01:54:51;101742.50;;;2.71;100.00
41898;BME280;27576;53.366;-1.498;2023-01-26T01:57:23;101731.59;;;2.60;100.00
41898;BME280;27576;53.366;-1.498;2023-01-26T02:00:00;101703.31;;;2.45;100.00
41898;BME280;27576;53.366;-1.498;2023-01-26T02:02:27;101713.84;;;2.50;100.00
41898;BME280;27576;53.366;-1.498;2023-01-26T02:04:55;101724.06;;;2.50;100.00
41898;BME280;27576;53.366;-1.498;2023-01-26T02:07:23;101722.53;;;2.52;100.00
41898;BME280;27576;53.366;-1.498;2023-01-26T02:09:49;101721.63;;;2.52;100.00
41898;BME280;27576;53.366;-1.498;2023-01-26T02:12:33;101709.22;;;2.44;100.00
41898;BME280;27576;53.366;-1.498;2023-01-26T02:15:01;101730.06;;;2.51;100.00
41898;BME280;27576;53.366;-1.498;2023-01-26T02:17:26;101749.81;;;2.65;100.00
41898;BME280;27576;53.366;-1.498;2023-01-26T02:20:09;101752.16;;;2.62;100.00
41898;BME280;27576;53.366;-1.498;2023-01-26T02:28:14;101739.56;;;2.65;100.00
41898;BME280;27576;53.366;-1.498;2023-01-26T02:30:40;101742.91;;;2.64;100.00
41898;BME280;27576;53.366;-1.498;2023-01-26T02:33:05;101707.53;;;2.45;100.00
41898;BME280;27576;53.366;-1.498;2023-01-26T02:35:31;101742.03;;;2.63;100.00
41898;BME280;27576;53.366;-1.498;2023-01-26T02:37:56;101717.41;;;2.52;100.00
41898;BME280;27576;53.366;-1.498;2023-01-26T02:40:35;101710.19;;;2.46;100.00
41898;BME280;27576;53.366;-1.498;2023-01-26T02:43:01;101728.72;;;2.56;100.00
41898;BME280;27576;53.366;-1.498;2023-01-26T02:45:29;101755.31;;;2.71;100.00
41898;BME280;27576;53.366;-1.498;2023-01-26T02:47:55;101753.44;;;2.68;100.00
41898;BME280;27576;53.366;-1.498;2023-01-26T02:50:22;101767.13;;;2.69;100.00
41898;BME280;27576;53.366;-1.498;2023-01-26T02:52:47;101740.16;;;2.61;100.00
41898;BME280;27576;53.366;-1.498;2023-01-26T02:55:12;101741.53;;;2.69;100.00
41898;BME280;27576;53.366;-1.498;2023-01-26T02:57:51;101728.66;;;2.67;100.00
41898;BME280;27576;53.366;-1.498;2023-01-26T03:00:19;101757.53;;;2.91;100.00
41898;BME280;27576;53.366;-1.498;2023-01-26T03:02:45;101742.94;;;2.90;100.00
41898;BME280;27576;53.366;-1.498;2023-01-26T03:05:12;101742.03;;;2.90;100.00
41898;BME280;27576;53.366;-1.498;2023-01-26T03:07:37;101730.91;;;2.89;100.00
41898;BME280;27576;53.366;-1.498;2023-01-26T03:10:04;101763.81;;;3.10;100.00
41898;BME280;27576;53.366;-1.498;2023-01-26T03:12:29;101744.91;;;3.08;100.00
41898;BME280;27576;53.366;-1.498;2023-01-26T03:14:55;101729.25;;;3.03;100.00
41898;BME280;27576;53.366;-1.498;2023-01-26T03:17:39;101760.78;;;3.15;100.00
41898;BME280;27576;53.366;-1.498;2023-01-26T03:20:05;101746.28;;;3.16;100.00
41898;BME280;27576;53.366;-1.498;2023-01-26T03:22:49;101741.75;;;3.12;100.00
41898;BME280;27576;53.366;-1.498;2023-01-26T03:25:33;101758.13;;;3.27;100.00
41898;BME280;27576;53.366;-1.498;2023-01-26T03:28:17;101694.41;;;2.92;100.00
41898;BME280;27576;53.366;-1.498;2023-01-26T03:30:47;101762.84;;;3.34;100.00
41898;BME280;27576;53.366;-1.498;2023-01-26T03:33:14;101756.31;;;3.26;100.00
41898;BME280;27576;53.366;-1.498;2023-01-26T03:35:40;101748.94;;;3.17;100.00
41898;BME280;27576;53.366;-1.498;2023-01-26T03:38:05;101783.50;;;3.37;100.00
41898;BME280;27576;53.366;-1.498;2023-01-26T03:40:30;101783.72;;;3.40;100.00
41898;BME280;27576;53.366;-1.498;2023-01-26T03:43:14;101744.03;;;3.20;100.00
41898;BME280;27576;53.366;-1.498;2023-01-26T03:46:04;101783.91;;;3.43;100.00
41898;BME280;27576;53.366;-1.498;2023-01-26T03:48:48;101747.88;;;3.27;100.00
41898;BME280;27576;53.366;-1.498;2023-01-26T03:51:32;101769.13;;;3.39;100.00
41898;BME280;27576;53.366;-1.498;2023-01-26T03:54:16;101770.81;;;3.39;100.00
41898;BME280;27576;53.366;-1.498;2023-01-26T03:57:00;101764.50;;;3.34;100.00
41898;BME280;27576;53.366;-1.498;2023-01-26T03:59:25;101764.63;;;3.35;100.00
41898;BME280;27576;53.366;-1.498;2023-01-26T04:02:07;101776.31;;;3.45;100.00
41898;BME280;27576;53.366;-1.498;2023-01-26T04:04:52;101780.16;;;3.52;100.00
41898;BME280;27576;53.366;-1.498;2023-01-26T04:07:36;101762.34;;;3.40;100.00
41898;BME280;27576;53.366;-1.498;2023-01-26T04:10:21;101775.13;;;3.53;100.00
41898;BME280;27576;53.366;-1.498;2023-01-26T04:12:47;101772.47;;;3.52;100.00
41898;BME280;27576;53.366;-1.498;2023-01-26T04:15:31;101778.47;;;3.52;100.00
41898;BME280;27576;53.366;-1.498;2023-01-26T04:18:16;101803.81;;;3.61;100.00
41898;BME280;27576;53.366;-1.498;2023-01-26T04:21:03;101785.56;;;3.56;100.00
41898;BME280;27576;53.366;-1.498;2023-01-26T04:23:47;101792.28;;;3.54;100.00
41898;BME280;27576;53.366;-1.498;2023-01-26T04:26:13;101798.50;;;3.58;100.00
41898;BME280;27576;53.366;-1.498;2023-01-26T04:28:38;101758.09;;;3.40;100.00
41898;BME280;27576;53.366;-1.498;2023-01-26T04:31:04;101776.72;;;3.51;100.00
41898;BME280;27576;53.366;-1.498;2023-01-26T04:33:29;101799.97;;;3.67;100.00
41898;BME280;27576;53.366;-1.498;2023-01-26T04:35:55;101760.19;;;3.46;100.00
41898;BME280;27576;53.366;-1.498;2023-01-26T04:38:20;101763.63;;;3.47;100.00
41898;BME280;27576;53.366;-1.498;2023-01-26T04:40:54;101779.56;;;3.56;100.00
41898;BME280;27576;53.366;-1.498;2023-01-26T04:43:20;101792.94;;;3.65;100.00
41898;BME280;27576;53.366;-1.498;2023-01-26T04:45:58;101793.75;;;3.64;100.00
41898;BME280;27576;53.366;-1.498;2023-01-26T04:48:24;101771.19;;;3.58;100.00
41898;BME280;27576;53.366;-1.498;2023-01-26T04:50:57;101768.22;;;3.52;100.00
41898;BME280;27576;53.366;-1.498;2023-01-26T04:53:22;101806.25;;;3.73;100.00
41898;BME280;27576;53.366;-1.498;2023-01-26T04:55:48;101786.47;;;3.57;100.00
41898;BME280;27576;53.366;-1.498;2023-01-26T04:58:13;101787.16;;;3.54;100.00
41898;BME280;27576;53.366;-1.498;2023-01-26T05:00:38;101800.47;;;3.62;100.00
41898;BME280;27576;53.366;-1.498;2023-01-26T05:03:04;101812.84;;;3.69;100.00
41898;BME280;27576;53.366;-1.498;2023-01-26T05:05:29;101808.72;;;3.71;100.00
41898;BME280;27576;53.366;-1.498;2023-01-26T05:07:54;101794.63;;;3.64;100.00
41898;BME280;27576;53.366;-1.498;2023-01-26T05:10:20;101799.06;;;3.67;100.00
41898;BME280;27576;53.366;-1.498;2023-01-26T05:12:45;101773.34;;;3.52;100.00
41898;BME280;27576;53.366;-1.498;2023-01-26T05:15:11;101806.38;;;3.74;100.00
41898;BME280;27576;53.366;-1.498;2023-01-26T05:17:36;101788.63;;;3.64;100.00
41898;BME280;27576;53.366;-1.498;2023-01-26T05:20:02;101818.59;;;3.78;100.00
41898;BME280;27576;53.366;-1.498;2023-01-26T05:22:28;101792.94;;;3.65;100.00
41898;BME280;27576;53.366;-1.498;2023-01-26T05:24:53;101756.09;;;3.50;100.00
41898;BME280;27576;53.366;-1.498;2023-01-26T05:27:19;101770.31;;;3.58;100.00
41898;BME280;27576;53.366;-1.498;2023-01-26T05:29:48;101767.56;;;3.55;100.00
41898;BME280;27576;53.366;-1.498;2023-01-26T05:32:14;101803.88;;;3.76;100.00
41898;BME280;27576;53.366;-1.498;2023-01-26T05:34:39;101813.25;;;3.75;100.00
41898;BME280;27576;53.366;-1.498;2023-01-26T05:37:04;101804.28;;;3.68;100.00
41898;BME280;27576;53.366;-1.498;2023-01-26T05:39:30;101790.22;;;3.62;100.00
41898;BME280;27576;53.366;-1.498;2023-01-26T05:41:55;101793.75;;;3.64;100.00
41898;BME280;27576;53.366;-1.498;2023-01-26T05:44:21;101819.75;;;3.83;100.00
41898;BME280;27576;53.366;-1.498;2023-01-26T05:46:47;101818.94;;;3.84;100.00
41898;BME280;27576;53.366;-1.498;2023-01-26T05:49:13;101796.78;;;3.72;100.00
41898;BME280;27576;53.366;-1.498;2023-01-26T05:51:38;101787.75;;;3.63;100.00
41898;BME280;27576;53.366;-1.498;2023-01-26T05:54:04;101801.03;;;3.71;100.00
41898;BME280;27576;53.366;-1.498;2023-01-26T05:56:29;101830.09;;;3.85;100.00
41898;BME280;27576;53.366;-1.498;2023-01-26T05:58:54;101815.75;;;3.74;100.00
41898;BME280;27576;53.366;-1.498;2023-01-26T06:01:20;101818.19;;;3.72;100.00
41898;BME280;27576;53.366;-1.498;2023-01-26T06:03:45;101833.56;;;3.72;100.00
41898;BME280;27576;53.366;-1.498;2023-01-26T06:06:10;101836.63;;;3.80;100.00
41898;BME280;27576;53.366;-1.498;2023-01-26T06:08:36;101839.97;;;3.79;100.00
41898;BME280;27576;53.366;-1.498;2023-01-26T06:11:01;101825.06;;;3.73;100.00
41898;BME280;27576;53.366;-1.498;2023-01-26T06:13:26;101865.31;;;3.87;100.00
41898;BME280;27576;53.366;-1.498;2023-01-26T06:15:52;101846.88;;;3.80;100.00
41898;BME280;27576;53.366;-1.498;2023-01-26T06:18:17;101807.56;;;3.66;100.00
41898;BME280;27576;53.366;-1.498;2023-01-26T06:20:42;101820.66;;;3.71;100.00
41898;BME280;27576;53.366;-1.498;2023-01-26T06:23:08;101841.06;;;3.82;100.00
41898;BME280;27576;53.366;-1.498;2023-01-26T06:25:36;101849.25;;;3.90;100.00
41898;BME280;27576;53.366;-1.498;2023-01-26T06:28:04;101839.28;;;3.81;100.00
41898;BME280;27576;53.366;-1.498;2023-01-26T06:30:29;101835.72;;;3.79;100.00
41898;BME280;27576;53.366;-1.498;2023-01-26T06:32:54;101828.84;;;3.78;100.00
41898;BME280;27576;53.366;-1.498;2023-01-26T06:35:20;101818.19;;;3.72;100.00
41898;BME280;27576;53.366;-1.498;2023-01-26T06:37:51;101816.63;;;3.74;100.00
41898;BME280;27576;53.366;-1.498;2023-01-26T06:40:17;101842.16;;;3.86;100.00
41898;BME280;27576;53.366;-1.498;2023-01-26T06:42:47;101853.84;;;3.96;100.00
41898;BME280;27576;53.366;-1.498;2023-01-26T06:45:14;101850.19;;;3.92;100.00
41898;BME280;27576;53.366;-1.498;2023-01-26T06:47:47;101866.66;;;3.96;100.00
41898;BME280;27576;53.366;-1.498;2023-01-26T06:50:14;101854.66;;;3.94;100.00
41898;BME280;27576;53.366;-1.498;2023-01-26T06:52:41;101858.91;;;3.94;100.00
41898;BME280;27576;53.366;-1.498;2023-01-26T06:55:15;101859.69;;;3.93;100.00
41898;BME280;27576;53.366;-1.498;2023-01-26T06:57:41;101846.56;;;3.88;100.00
41898;BME280;27576;53.366;-1.498;2023-01-26T07:00:08;101839.19;;;3.80;100.00
41898;BME280;27576;53.366;-1.498;2023-01-26T07:02:34;101843.91;;;3.87;100.00
41898;BME280;27576;53.366;-1.498;2023-01-26T07:04:59;101835.94;;;3.82;100.00
41898;BME280;27576;53.366;-1.498;2023-01-26T07:07:25;101834.25;;;3.83;100.00
41898;BME280;27576;53.366;-1.498;2023-01-26T07:09:50;101852.97;;;3.95;100.00
41898;BME280;27576;53.366;-1.498;2023-01-26T07:12:17;101817.50;;;3.75;100.00
41898;BME280;27576;53.366;-1.498;2023-01-26T07:14:43;101820.94;;;3.75;100.00
41898;BME280;27576;53.366;-1.498;2023-01-26T07:17:08;101860.75;;;3.97;100.00
41898;BME280;27576;53.366;-1.498;2023-01-26T07:19:34;101848.63;;;3.81;100.00
41898;BME280;27576;53.366;-1.498;2023-01-26T07:22:00;101853.28;;;3.86;100.00
41898;BME280;27576;53.366;-1.498;2023-01-26T07:24:26;101836.63;;;3.80;100.00
41898;BME280;27576;53.366;-1.498;2023-01-26T07:26:51;101853.66;;;3.92;100.00
41898;BME280;27576;53.366;-1.498;2023-01-26T07:29:17;101843.50;;;3.81;100.00
41898;BME280;27576;53.366;-1.498;2023-01-26T07:31:42;101841.53;;;3.77;100.00
41898;BME280;27576;53.366;-1.498;2023-01-26T07:34:11;101843.22;;;3.76;100.00
41898;BME280;27576;53.366;-1.498;2023-01-26T07:36:37;101854.16;;;3.87;100.00
41898;BME280;27576;53.366;-1.498;2023-01-26T07:39:03;101852.88;;;3.80;100.00
41898;BME280;27576;53.366;-1.498;2023-01-26T07:41:28;101844.03;;;3.75;100.00
41898;BME280;27576;53.366;-1.498;2023-01-26T07:43:53;101848.94;;;3.72;100.00
41898;BME280;27576;53.366;-1.498;2023-01-26T07:46:19;101869.16;;;3.81;100.00
41898;BME280;27576;53.366;-1.498;2023-01-26T07:48:44;101881.69;;;3.89;100.00
41898;BME280;27576;53.366;-1.498;2023-01-26T07:51:10;101869.66;;;3.75;100.00
41898;BME280;27576;53.366;-1.498;2023-01-26T07:53:38;101885.72;;;3.86;100.00
41898;BME280;27576;53.366;-1.498;2023-01-26T07:56:05;101906.91;;;3.97;100.00
41898;BME280;27576;53.366;-1.498;2023-01-26T07:58:31;101921.00;;;4.03;100.00
41898;BME280;27576;53.366;-1.498;2023-01-26T08:01:04;101907.91;;;3.99;100.00
41898;BME280;27576;53.366;-1.498;2023-01-26T08:03:29;101898.25;;;3.94;100.00
41898;BME280;27576;53.366;-1.498;2023-01-26T08:05:54;101922.09;;;4.07;100.00
41898;BME280;27576;53.366;-1.498;2023-01-26T08:08:20;101917.66;;;4.04;100.00
41898;BME280;27576;53.366;-1.498;2023-01-26T08:10:48;101891.22;;;3.92;100.00
41898;BME280;27576;53.366;-1.498;2023-01-26T08:13:13;101888.94;;;3.97;100.00
41898;BME280;27576;53.366;-1.498;2023-01-26T08:15:39;101924.16;;;4.12;100.00
41898;BME280;27576;53.366;-1.498;2023-01-26T08:18:04;101887.31;;;3.97;100.00
41898;BME280;27576;53.366;-1.498;2023-01-26T08:20:30;101886.59;;;4.00;100.00
41898;BME280;27576;53.366;-1.498;2023-01-26T08:22:55;101872.03;;;3.85;100.00
41898;BME280;27576;53.366;-1.498;2023-01-26T08:25:21;101916.19;;;4.21;100.00
41898;BME280;27576;53.366;-1.498;2023-01-26T08:27:49;101900.47;;;4.16;100.00
41898;BME280;27576;53.366;-1.498;2023-01-26T08:30:15;101909.84;;;4.16;100.00
41898;BME280;27576;53.366;-1.498;2023-01-26T08:32:41;101898.34;;;4.09;100.00
41898;BME280;27576;53.366;-1.498;2023-01-26T08:35:07;101914.38;;;4.20;100.00
41898;BME280;27576;53.366;-1.498;2023-01-26T08:37:32;101905.44;;;4.13;100.00
41898;BME280;27576;53.366;-1.498;2023-01-26T08:40:00;101904.81;;;4.17;100.00
41898;BME280;27576;53.366;-1.498;2023-01-26T08:42:26;101913.00;;;4.25;100.00
41898;BME280;27576;53.366;-1.498;2023-01-26T08:44:52;101921.06;;;4.31;100.00
41898;BME280;27576;53.366;-1.498;2023-01-26T08:47:18;101900.19;;;4.25;100.00
41898;BME280;27576;53.366;-1.498;2023-01-26T08:49:43;101895.66;;;4.21;100.00
41898;BME280;27576;53.366;-1.498;2023-01-26T08:52:08;101890.91;;;4.14;100.00
41898;BME280;27576;53.366;-1.498;2023-01-26T08:54:34;101904.91;;;4.19;100.00
41898;BME280;27576;53.366;-1.498;2023-01-26T08:56:59;101927.19;;;4.33;100.00
41898;BME280;27576;53.366;-1.498;2023-01-26T08:59:24;101937.06;;;4.40;100.00
41898;BME280;27576;53.366;-1.498;2023-01-26T09:01:50;101911.31;;;4.26;100.00
41898;BME280;27576;53.366;-1.498;2023-01-26T09:04:15;101930.94;;;4.38;100.00
41898;BME280;27576;53.366;-1.498;2023-01-26T09:06:40;101897.13;;;4.17;100.00
41898;BME280;27576;53.366;-1.498;2023-01-26T09:09:06;101948.69;;;4.49;100.00
41898;BME280;27576;53.366;-1.498;2023-01-26T09:11:37;101928.75;;;4.45;100.00
41898;BME280;27576;53.366;-1.498;2023-01-26T09:14:02;101936.94;;;4.52;100.00
41898;BME280;27576;53.366;-1.498;2023-01-26T09:16:28;101919.84;;;4.39;100.00
41898;BME280;27576;53.366;-1.498;2023-01-26T09:18:53;101938.59;;;4.52;100.00
41898;BME280;27576;53.366;-1.498;2023-01-26T09:21:19;101957.94;;;4.60;100.00
41898;BME280;27576;53.366;-1.498;2023-01-26T09:23:45;101937.69;;;4.51;100.00
41898;BME280;27576;53.366;-1.498;2023-01-26T09:26:11;101947.66;;;4.60;100.00
41898;BME280;27576;53.366;-1.498;2023-01-26T09:28:36;101950.59;;;4.66;100.00
41898;BME280;27576;53.366;-1.498;2023-01-26T09:31:03;101942.22;;;4.68;100.00
41898;BME280;27576;53.366;-1.498;2023-01-26T09:33:29;101921.69;;;4.55;100.00
41898;BME280;27576;53.366;-1.498;2023-01-26T09:35:54;101951.88;;;4.73;100.00
41898;BME280;27576;53.366;-1.498;2023-01-26T09:38:19;101947.41;;;4.70;100.00
41898;BME280;27576;53.366;-1.498;2023-01-26T09:41:05;101953.09;;;4.79;100.00
41898;BME280;27576;53.366;-1.498;2023-01-26T09:45:59;101962.00;;;4.84;100.00
41898;BME280;27576;53.366;-1.498;2023-01-26T09:48:48;101939.13;;;4.74;100.00
41898;BME280;27576;53.366;-1.498;2023-01-26T09:51:31;101933.69;;;4.70;100.00
41898;BME280;27576;53.366;-1.498;2023-01-26T09:56:45;101938.56;;;4.65;100.00
41898;BME280;27576;53.366;-1.498;2023-01-26T09:59:21;101984.88;;;4.95;100.00
41898;BME280;27576;53.366;-1.498;2023-01-26T10:04:32;101981.53;;;4.96;100.00
41898;BME280;27576;53.366;-1.498;2023-01-26T10:07:02;101985.06;;;4.98;100.00
41898;BME280;27576;53.366;-1.498;2023-01-26T10:09:33;101994.53;;;4.99;100.00
41898;BME280;27576;53.366;-1.498;2023-01-26T10:12:06;101993.91;;;5.03;100.00
41898;BME280;27576;53.366;-1.498;2023-01-26T10:14:43;101990.75;;;5.07;100.00
41898;BME280;27576;53.366;-1.498;2023-01-26T10:20:00;101991.81;;;5.10;100.00
41898;BME280;27576;53.366;-1.498;2023-01-26T10:22:39;102003.16;;;5.14;100.00
41898;BME280;27576;53.366;-1.498;2023-01-26T10:25:25;102005.75;;;5.14;100.00
41898;BME280;27576;53.366;-1.498;2023-01-26T10:27:52;101979.56;;;4.91;100.00
41898;BME280;27576;53.366;-1.498;2023-01-26T10:30:19;102008.84;;;5.08;100.00
41898;BME280;27576;53.366;-1.498;2023-01-26T10:32:46;102008.84;;;5.08;100.00
41898;BME280;27576;53.366;-1.498;2023-01-26T10:35:20;102011.69;;;5.13;100.00
41898;BME280;27576;53.366;-1.498;2023-01-26T10:37:45;102001.41;;;5.13;100.00
41898;BME280;27576;53.366;-1.498;2023-01-26T10:40:11;102008.34;;;5.29;100.00
41898;BME280;27576;53.366;-1.498;2023-01-26T10:42:38;101966.97;;;5.24;100.00
41898;BME280;27576;53.366;-1.498;2023-01-26T10:45:24;102016.19;;;5.60;100.00
41898;BME280;27576;53.366;-1.498;2023-01-26T10:48:25;102014.25;;;5.71;100.00
41898;BME280;27576;53.366;-1.498;2023-01-26T10:50:52;102015.47;;;5.77;100.00
41898;BME280;27576;53.366;-1.498;2023-01-26T10:53:26;101995.88;;;5.64;100.00
41898;BME280;27576;53.366;-1.498;2023-01-26T10:58:40;102005.03;;;5.74;100.00
41898;BME280;27576;53.366;-1.498;2023-01-26T11:01:08;101998.72;;;5.69;100.00
41898;BME280;27576;53.366;-1.498;2023-01-26T11:03:37;102013.91;;;5.79;100.00
41898;BME280;27576;53.366;-1.498;2023-01-26T11:06:14;102028.63;;;5.82;100.00
41898;BME280;27576;53.366;-1.498;2023-01-26T11:08:41;102025.63;;;5.74;100.00
41898;BME280;27576;53.366;-1.498;2023-01-26T11:11:22;102034.22;;;5.75;100.00
41898;BME280;27576;53.366;-1.498;2023-01-26T11:14:13;102033.34;;;5.74;100.00
41898;BME280;27576;53.366;-1.498;2023-01-26T11:16:42;102015.84;;;5.69;100.00
41898;BME280;27576;53.366;-1.498;2023-01-26T11:19:29;102000.78;;;5.75;100.00
41898;BME280;27576;53.366;-1.498;2023-01-26T11:22:05;101993.13;;;5.76;100.00
41898;BME280;27576;53.366;-1.498;2023-01-26T11:24:39;102010.06;;;5.87;100.00
41898;BME280;27576;53.366;-1.498;2023-01-26T11:30:18;102021.09;;;6.00;100.00
41898;BME280;27576;53.366;-1.498;2023-01-26T11:35:41;102025.69;;;5.90;100.00
41898;BME280;27576;53.366;-1.498;2023-01-26T11:46:15;102010.19;;;5.74;100.00
41898;BME280;27576;53.366;-1.498;2023-01-26T11:57:41;102014.59;;;5.91;100.00
41898;BME280;27576;53.366;-1.498;2023-01-26T12:02:32;101978.06;;;5.82;100.00
41898;BME280;27576;53.366;-1.498;2023-01-26T12:05:13;101974.44;;;5.79;100.00
41898;BME280;27576;53.366;-1.498;2023-01-26T12:07:52;102006.47;;;5.99;100.00
41898;BME280;27576;53.366;-1.498;2023-01-26T12:10:34;101994.56;;;6.01;100.00
41898;BME280;27576;53.366;-1.498;2023-01-26T12:15:43;101983.94;;;5.95;100.00
41898;BME280;27576;53.366;-1.498;2023-01-26T12:18:28;101961.47;;;5.77;100.00
41898;BME280;27576;53.366;-1.498;2023-01-26T12:21:07;101970.25;;;5.81;100.00
41898;BME280;27576;53.366;-1.498;2023-01-26T12:23:46;101972.94;;;5.82;100.00
41898;BME280;27576;53.366;-1.498;2023-01-26T12:26:16;101962.09;;;5.73;100.00
41898;BME280;27576;53.366;-1.498;2023-01-26T12:29:05;101968.66;;;5.83;100.00
41898;BME280;27576;53.366;-1.498;2023-01-26T12:31:57;101971.59;;;6.04;100.00
41898;BME280;27576;53.366;-1.498;2023-01-26T12:34:27;101953.94;;;6.10;100.00
41898;BME280;27576;53.366;-1.498;2023-01-26T12:37:35;101968.94;;;6.33;100.00
41898;BME280;27576;53.366;-1.498;2023-01-26T12:40:05;101960.41;;;6.34;100.00
41898;BME280;27576;53.366;-1.498;2023-01-26T12:42:51;101931.69;;;6.27;100.00
41898;BME280;27576;53.366;-1.498;2023-01-26T12:45:21;101933.97;;;6.37;100.00
41898;BME280;27576;53.366;-1.498;2023-01-26T12:47:51;101917.72;;;6.38;100.00
41898;BME280;27576;53.366;-1.498;2023-01-26T12:53:00;101949.28;;;6.83;100.00
41898;BME280;27576;53.366;-1.498;2023-01-26T12:55:30;101939.22;;;6.87;100.00
41898;BME280;27576;53.366;-1.498;2023-01-26T12:58:09;101942.94;;;6.93;100.00
41898;BME280;27576;53.366;-1.498;2023-01-26T13:00:37;101945.03;;;7.34;100.00
41898;BME280;27576;53.366;-1.498;2023-01-26T13:05:33;101929.50;;;8.96;100.00
41898;BME280;27576;53.366;-1.498;2023-01-26T13:10:57;101923.25;;;11.10;100.00
41898;BME280;27576;53.366;-1.498;2023-01-26T13:18:58;101919.63;;;13.30;89.55
41898;BME280;27576;53.366;-1.498;2023-01-26T13:21:48;101927.94;;;13.50;97.91
41898;BME280;27576;53.366;-1.498;2023-01-26T13:26:46;101919.97;;;12.81;89.61
41898;BME280;27576;53.366;-1.498;2023-01-26T13:31:50;101903.63;;;11.18;89.24
41898;BME280;27576;53.366;-1.498;2023-01-26T13:34:18;101881.53;;;10.31;84.52
41898;BME280;27576;53.366;-1.498;2023-01-26T13:36:46;101937.63;;;9.88;88.88
41898;BME280;27576;53.366;-1.498;2023-01-26T13:39:23;101897.63;;;9.17;93.87
41898;BME280;27576;53.366;-1.498;2023-01-26T13:41:51;101919.75;;;8.91;94.62
41898;BME280;27576;53.366;-1.498;2023-01-26T13:44:37;101906.03;;;8.53;97.58
41898;BME280;27576;53.366;-1.498;2023-01-26T13:47:12;101894.66;;;8.12;99.39
41898;BME280;27576;53.366;-1.498;2023-01-26T13:49:42;101940.69;;;8.03;100.00
41898;BME280;27576;53.366;-1.498;2023-01-26T13:52:16;101934.88;;;7.71;100.00
41898;BME280;27576;53.366;-1.498;2023-01-26T13:54:43;101925.94;;;7.47;100.00
41898;BME280;27576;53.366;-1.498;2023-01-26T13:57:11;101908.97;;;7.18;100.00
41898;BME280;27576;53.366;-1.498;2023-01-26T13:59:51;101933.22;;;7.21;100.00
41898;BME280;27576;53.366;-1.498;2023-01-26T14:02:31;101940.56;;;7.13;100.00